Time;durP1;ratioP1;P1;durP2;ratioP2;P2;SDS_P1;SDS_P2;PMS_P1;PMS_P2;Temp;Humidity;BMP_temperature;BMP_pressure;BME280_temperature;BME280_humidity;BME280_pressure;Samples;Min_cycle;Max_cycle;Signal;HPM_P1;HPM_P2
2024/01/28 00:00:14;;;;;;;;;;;;;;;21.72;22.92;98638.97;5013931;28;1349;-74
2024/01/28 00:02:40;;;;;;;;;;;;;;;21.64;23.32;98643.13;4981292;28;941;-73
2024/01/28 00:05:05;;;;;;;;;;;;;;;21.91;22.87;98650.78;4997814;28;983;-74
2024/01/28 00:07:31;;;;;;;;;;;;;;;21.81;22.80;98647.72;4996523;28;1062;-74
2024/01/28 00:09:56;;;;;;;;;;;;;;;21.83;22.85;98653.75;5033552;28;1921;-74
2024/01/28 00:12:22;;;;;;;;;;;;;;;21.95;22.85;98652.31;5000659;28;1463;-74
2024/01/28 00:14:47;;;;;;;;;;;;;;;21.97;22.72;98660.41;4986251;28;1196;-74
2024/01/28 00:17:13;;;;;;;;;;;;;;;21.45;23.46;98663.66;5013858;28;1058;-74
2024/01/28 00:19:38;;;;;;;;;;;;;;;21.29;23.75;98667.13;5030169;28;1036;-74
2024/01/28 00:22:06;;;;;;;;;;;;;;;21.45;23.37;98663.66;5013582;28;1258;-73
2024/01/28 00:24:31;;;;;;;;;;;;;;;21.46;23.45;98653.97;5030082;28;1120;-73
2024/01/28 00:26:57;;;;;;;;;;;;;;;21.87;23.07;98675.56;5012727;28;1048;-74
2024/01/28 00:29:29;;;;;;;;;;;;;;;21.72;22.88;98660.84;5029869;28;1902;-74
2024/01/28 00:31:55;;;;;;;;;;;;;;;21.72;22.89;98667.28;5013593;28;1446;-74
2024/01/28 00:34:20;;;;;;;;;;;;;;;21.85;22.77;98665.44;5013640;28;1184;-74
2024/01/28 00:36:46;;;;;;;;;;;;;;;21.67;23.25;98664.94;5013638;28;1265;-73
2024/01/28 00:39:14;;;;;;;;;;;;;;;21.85;23.01;98659.75;5014405;28;922;-73
2024/01/28 00:41:40;;;;;;;;;;;;;;;21.87;22.82;98661.41;5015498;28;935;-74
2024/01/28 00:44:05;;;;;;;;;;;;;;;21.71;22.89;98665.69;4998224;28;1226;-74
2024/01/28 00:46:34;;;;;;;;;;;;;;;21.84;22.93;98669.50;5014732;28;996;-74
2024/01/28 00:49:01;;;;;;;;;;;;;;;21.93;22.51;98668.16;4998609;28;1977;-74
2024/01/28 00:51:27;;;;;;;;;;;;;;;21.56;22.95;98675.66;5015542;28;1030;-74
2024/01/28 00:53:52;;;;;;;;;;;;;;;21.27;23.31;98667.53;5014116;28;869;-74
2024/01/28 00:56:18;;;;;;;;;;;;;;;21.45;23.32;98670.16;4998090;28;1452;-74
2024/01/28 00:58:44;;;;;;;;;;;;;;;21.49;23.15;98665.22;5030966;28;1158;-74
2024/01/28 01:01:09;;;;;;;;;;;;;;;21.52;23.28;98657.91;5014447;28;903;-74
2024/01/28 01:03:35;;;;;;;;;;;;;;;21.43;23.46;98657.63;5030848;28;1434;-74
2024/01/28 01:06:00;;;;;;;;;;;;;;;21.50;23.11;98643.38;5014353;28;1209;-74
2024/01/28 01:08:26;;;;;;;;;;;;;;;21.56;22.92;98645.31;4996411;28;1910;-74
2024/01/28 01:10:52;;;;;;;;;;;;;;;21.58;23.15;98642.84;4980313;28;1302;-73
2024/01/28 01:13:18;;;;;;;;;;;;;;;21.82;22.61;98643.66;5012873;28;1038;-74
2024/01/28 01:15:44;;;;;;;;;;;;;;;21.92;22.53;98646.72;4996620;28;1100;-74
2024/01/28 01:18:10;;;;;;;;;;;;;;;21.78;22.93;98637.25;4996462;28;1039;-73
2024/01/28 01:20:36;;;;;;;;;;;;;;;21.77;22.64;98646.19;4996719;28;1025;-74
2024/01/28 01:23:01;;;;;;;;;;;;;;;21.65;22.72;98633.41;4996474;28;1098;-74
2024/01/28 01:25:27;;;;;;;;;;;;;;;21.76;22.73;98634.06;4996446;28;1389;-74
2024/01/28 01:27:53;;;;;;;;;;;;;;;21.77;22.81;98634.84;5012832;28;1050;-74
2024/01/28 01:30:19;;;;;;;;;;;;;;;21.49;23.04;98630.44;4996460;28;1973;-73
2024/01/28 01:32:45;;;;;;;;;;;;;;;20.90;23.61;98622.41;5013068;28;1035;-74
2024/01/28 01:35:16;;;;;;;;;;;;;;;21.27;23.41;98636.41;4996540;28;1238;-74
2024/01/28 01:37:41;;;;;;;;;;;;;;;21.40;23.40;98627.34;4982235;28;1112;-74
2024/01/28 01:40:07;;;;;;;;;;;;;;;21.42;23.35;98617.22;5018396;28;923;-73
2024/01/28 01:42:33;;;;;;;;;;;;;;;21.53;23.05;98622.69;5016575;28;1021;-74
2024/01/28 01:44:58;;;;;;;;;;;;;;;21.61;22.80;98627.03;5018056;28;1003;-74
2024/01/28 01:47:27;;;;;;;;;;;;;;;21.82;22.49;98635.16;5034005;28;1282;-73
2024/01/28 01:49:53;;;;;;;;;;;;;;;21.75;22.61;98625.97;5001210;28;1977;-74
2024/01/28 01:52:18;;;;;;;;;;;;;;;21.64;22.81;98628.19;5001049;28;940;-74
2024/01/28 01:54:44;;;;;;;;;;;;;;;21.55;22.82;98635.22;5001134;28;1143;-74
2024/01/28 01:57:10;;;;;;;;;;;;;;;21.92;22.47;98644.69;5001280;28;1382;-74
2024/01/28 01:59:36;;;;;;;;;;;;;;;21.47;22.95;98647.06;5017484;28;907;-73
2024/01/28 02:02:01;;;;;;;;;;;;;;;21.26;23.28;98640.47;5017495;28;965;-74
2024/01/28 02:04:27;;;;;;;;;;;;;;;21.46;22.94;98653.97;4996272;28;1044;-74
2024/01/28 02:06:52;;;;;;;;;;;;;;;21.65;22.78;98652.44;4979878;28;949;-73
2024/01/28 02:09:18;;;;;;;;;;;;;;;21.70;22.62;98647.06;4996234;28;1899;-74
2024/01/28 02:11:43;;;;;;;;;;;;;;;22.03;21.99;98648.13;4964067;28;1081;-74
2024/01/28 02:14:10;;;;;;;;;;;;;;;21.79;22.34;98644.50;4980295;28;1092;-74
2024/01/28 02:16:35;;;;;;;;;;;;;;;21.75;22.78;98649.41;4996358;28;951;-74
2024/01/28 02:19:01;;;;;;;;;;;;;;;21.89;22.37;98636.25;4963832;28;1005;-74
2024/01/28 02:21:26;;;;;;;;;;;;;;;21.99;22.35;98646.59;4963885;28;1041;-74
2024/01/28 02:23:52;;;;;;;;;;;;;;;21.55;22.81;98640.03;4947160;28;1271;-74
2024/01/28 02:26:17;;;;;;;;;;;;;;;21.72;22.49;98641.81;4979685;28;1085;-73
2024/01/28 02:28:43;;;;;;;;;;;;;;;21.57;22.99;98648.94;4947302;28;1988;-73
2024/01/28 02:31:08;;;;;;;;;;;;;;;21.79;22.47;98650.16;4979483;28;927;-74
2024/01/28 02:33:34;;;;;;;;;;;;;;;21.81;22.27;98659.06;4963384;28;1006;-74
2024/01/28 02:35:59;;;;;;;;;;;;;;;21.95;22.44;98660.03;4991982;28;1063;-73
2024/01/28 02:38:25;;;;;;;;;;;;;;;21.80;22.68;98663.09;5002268;28;1056;-74
2024/01/28 02:40:55;;;;;;;;;;;;;;;22.00;22.20;98670.88;5035020;28;1098;-74
2024/01/28 02:43:20;;;;;;;;;;;;;;;21.93;22.20;98671.00;4979306;28;1092;-74
2024/01/28 02:45:46;;;;;;;;;;;;;;;21.73;22.46;98668.88;4995985;28;1062;-73
2024/01/28 02:48:11;;;;;;;;;;;;;;;21.74;22.72;98676.16;4995181;28;1968;-74
2024/01/28 02:50:37;;;;;;;;;;;;;;;21.87;22.46;98678.41;5014612;28;1022;-73
2024/01/28 02:53:02;;;;;;;;;;;;;;;21.70;22.46;98694.44;5015183;28;1381;-73
2024/01/28 02:55:28;;;;;;;;;;;;;;;21.40;22.91;98695.28;4959887;28;1029;-74
2024/01/28 02:57:53;;;;;;;;;;;;;;;21.35;22.94;98710.75;4976407;28;960;-74
2024/01/28 03:00:19;;;;;;;;;;;;;;;21.60;22.60;98704.69;4943543;28;1488;-74
2024/01/28 03:02:44;;;;;;;;;;;;;;;21.76;22.33;98712.53;4956396;28;1031;-74
2024/01/28 03:05:10;;;;;;;;;;;;;;;21.80;22.33;98719.75;4956513;28;1028;-74
2024/01/28 03:07:36;;;;;;;;;;;;;;;21.66;22.71;98717.16;4908729;28;1235;-74
2024/01/28 03:10:02;;;;;;;;;;;;;;;21.50;22.81;98705.66;4956527;28;1922;-74
2024/01/28 03:12:27;;;;;;;;;;;;;;;21.50;22.65;98706.47;4940356;29;1178;-74
2024/01/28 03:14:53;;;;;;;;;;;;;;;21.71;22.43;98711.00;4954789;28;1320;-74
2024/01/28 03:17:18;;;;;;;;;;;;;;;21.52;22.52;98714.53;4975509;28;1181;-74
2024/01/28 03:19:44;;;;;;;;;;;;;;;21.63;22.74;98720.03;4959340;28;1005;-74
2024/01/28 03:22:09;;;;;;;;;;;;;;;21.41;22.70;98719.56;4975714;28;1013;-74
2024/01/28 03:24:35;;;;;;;;;;;;;;;21.27;23.17;98726.97;4911646;28;1228;-74
2024/01/28 03:27:00;;;;;;;;;;;;;;;21.32;22.89;98722.91;4975401;28;1246;-74
2024/01/28 03:29:27;;;;;;;;;;;;;;;21.46;22.62;98733.25;4959242;28;1986;-74
2024/01/28 03:31:52;;;;;;;;;;;;;;;21.48;22.93;98742.91;4975239;28;1130;-74
2024/01/28 03:34:18;;;;;;;;;;;;;;;21.72;22.58;98740.94;4983499;28;1121;-74
2024/01/28 03:36:43;;;;;;;;;;;;;;;21.77;22.58;98737.63;5015815;28;962;-73
2024/01/28 03:39:09;;;;;;;;;;;;;;;21.91;22.18;98749.94;5016708;28;1017;-74
2024/01/28 03:41:34;;;;;;;;;;;;;;;21.68;22.39;98757.19;5016824;28;1304;-74
2024/01/28 03:44:00;;;;;;;;;;;;;;;21.69;22.52;98752.31;5016774;28;992;-74
2024/01/28 03:46:25;;;;;;;;;;;;;;;21.61;22.51;98765.78;5016623;28;983;-73
2024/01/28 03:48:51;;;;;;;;;;;;;;;21.82;22.33;98773.97;5016418;28;1906;-73
2024/01/28 03:51:16;;;;;;;;;;;;;;;21.77;22.51;98763.13;5031718;28;1197;-74
2024/01/28 03:53:42;;;;;;;;;;;;;;;21.84;22.40;98779.19;5015163;28;1051;-74
2024/01/28 03:56:09;;;;;;;;;;;;;;;21.85;22.37;98778.75;5015467;28;967;-74
2024/01/28 03:58:35;;;;;;;;;;;;;;;21.92;22.19;98777.06;5016266;28;937;-74
2024/01/28 04:01:01;;;;;;;;;;;;;;;21.90;22.23;98785.19;5015281;28;957;-74
2024/01/28 04:03:26;;;;;;;;;;;;;;;21.43;23.00;98790.72;5016361;28;996;-74
2024/01/28 04:05:52;;;;;;;;;;;;;;;21.25;22.91;98803.03;5016463;28;958;-74
2024/01/28 04:08:17;;;;;;;;;;;;;;;21.25;23.30;98796.59;4982877;28;1906;-74
2024/01/28 04:10:43;;;;;;;;;;;;;;;21.20;23.14;98795.03;4998311;28;1071;-74
2024/01/28 04:13:09;;;;;;;;;;;;;;;21.54;22.78;98805.50;5015196;28;907;-74
2024/01/28 04:15:34;;;;;;;;;;;;;;;21.72;22.57;98813.78;5014982;28;934;-73
2024/01/28 04:18:00;;;;;;;;;;;;;;;21.79;22.60;98817.31;5014883;28;1166;-74
2024/01/28 04:20:26;;;;;;;;;;;;;;;21.69;22.39;98815.41;5015798;28;912;-73
2024/01/28 04:22:51;;;;;;;;;;;;;;;21.82;22.42;98807.97;5014644;28;929;-74
2024/01/28 04:25:18;;;;;;;;;;;;;;;21.90;22.33;98813.50;4998697;28;1237;-74
2024/01/28 04:27:44;;;;;;;;;;;;;;;21.68;22.58;98819.50;5016010;28;933;-74
2024/01/28 04:30:09;;;;;;;;;;;;;;;21.65;22.68;98820.31;5014584;28;1894;-74
2024/01/28 04:32:35;;;;;;;;;;;;;;;21.63;22.70;98822.78;5014566;28;960;-74
2024/01/28 04:35:01;;;;;;;;;;;;;;;21.63;22.45;98811.47;5021955;28;1617;-73
2024/01/28 04:37:26;;;;;;;;;;;;;;;21.38;22.96;98827.97;5034457;28;1783;-74
2024/01/28 04:39:53;;;;;;;;;;;;;;;21.47;22.69;98823.41;5034382;28;1317;-74
2024/01/28 04:42:22;;;;;;;;;;;;;;;21.59;22.66;98827.69;5034409;28;898;-74
2024/01/28 04:44:50;;;;;;;;;;;;;;;21.64;22.64;98841.38;5035560;28;950;-73
2024/01/28 04:47:16;;;;;;;;;;;;;;;21.77;22.57;98839.59;5034329;28;958;-75
2024/01/28 04:49:42;;;;;;;;;;;;;;;21.77;22.22;98842.44;5035475;28;1918;-74
2024/01/28 04:52:07;;;;;;;;;;;;;;;21.68;22.32;98836.47;5034984;28;1821;-74
2024/01/28 04:54:33;;;;;;;;;;;;;;;21.71;22.33;98843.31;5033416;28;1776;-74
2024/01/28 04:57:01;;;;;;;;;;;;;;;21.74;22.55;98846.09;5033647;28;1828;-74
2024/01/28 04:59:27;;;;;;;;;;;;;;;21.68;22.43;98844.97;5001388;28;889;-73
2024/01/28 05:01:53;;;;;;;;;;;;;;;21.80;22.36;98844.41;5017586;28;1043;-74
2024/01/28 05:04:18;;;;;;;;;;;;;;;21.68;22.67;98847.81;5017689;28;1135;-74
2024/01/28 05:06:44;;;;;;;;;;;;;;;21.75;22.36;98863.91;5033612;28;1630;-74
2024/01/28 05:09:10;;;;;;;;;;;;;;;21.79;22.12;98845.63;5000875;28;1898;-74
2024/01/28 05:11:36;;;;;;;;;;;;;;;21.64;22.60;98861.22;5035240;28;911;-74
2024/01/28 05:14:01;;;;;;;;;;;;;;;21.67;22.29;98874.53;5038259;28;1091;-74
2024/01/28 05:16:27;;;;;;;;;;;;;;;21.29;23.28;98880.22;5039106;28;1041;-74
2024/01/28 05:18:53;;;;;;;;;;;;;;;21.35;23.12;98880.59;5037905;28;1214;-73
2024/01/28 05:21:18;;;;;;;;;;;;;;;21.27;22.83;98885.50;5037853;28;1234;-74
2024/01/28 05:23:47;;;;;;;;;;;;;;;21.52;22.79;98890.09;5019523;28;1362;-74
2024/01/28 05:26:13;;;;;;;;;;;;;;;21.49;22.83;98888.09;5040419;28;1420;-73
2024/01/28 05:28:38;;;;;;;;;;;;;;;21.71;22.50;98889.47;5021349;28;1898;-74
2024/01/28 05:31:04;;;;;;;;;;;;;;;21.67;22.44;98894.38;5039003;28;931;-73
2024/01/28 05:33:29;;;;;;;;;;;;;;;21.65;22.53;98893.97;5037692;28;900;-73
2024/01/28 05:35:57;;;;;;;;;;;;;;;21.65;22.65;98893.97;5016645;28;1090;-73
2024/01/28 05:38:23;;;;;;;;;;;;;;;21.72;22.61;98891.06;5000013;28;992;-74
2024/01/28 05:40:49;;;;;;;;;;;;;;;21.56;22.56;98897.34;4957151;28;1367;-73
2024/01/28 05:43:14;;;;;;;;;;;;;;;21.74;22.57;98891.44;4957616;29;1304;-73
2024/01/28 05:45:40;;;;;;;;;;;;;;;21.81;22.29;98901.84;4958128;29;964;-74
2024/01/28 05:48:05;;;;;;;;;;;;;;;21.78;22.50;98902.72;4958174;29;1113;-74
2024/01/28 05:50:31;;;;;;;;;;;;;;;21.88;22.44;98900.97;4941952;29;1976;-73
2024/01/28 05:52:57;;;;;;;;;;;;;;;21.60;22.74;98908.59;4942321;29;1081;-74
2024/01/28 05:55:22;;;;;;;;;;;;;;;21.25;23.10;98904.94;4941644;29;1008;-74
2024/01/28 05:57:48;;;;;;;;;;;;;;;21.33;22.83;98911.34;4957278;28;1392;-74
2024/01/28 06:00:14;;;;;;;;;;;;;;;21.39;22.92;98909.66;4941804;29;1031;-74
2024/01/28 06:02:40;;;;;;;;;;;;;;;21.70;22.41;98921.81;4926066;29;989;-74
2024/01/28 06:05:06;;;;;;;;;;;;;;;21.75;22.63;98909.22;4941755;29;1160;-74
2024/01/28 06:07:32;;;;;;;;;;;;;;;21.78;22.47;98919.72;4986949;28;1122;-74
2024/01/28 06:09:57;;;;;;;;;;;;;;;21.76;22.25;98920.16;4980214;28;1993;-74
2024/01/28 06:12:23;;;;;;;;;;;;;;;21.72;22.56;98925.06;5015499;28;1346;-74
2024/01/28 06:14:48;;;;;;;;;;;;;;;21.60;22.53;98922.75;5038107;28;925;-74
2024/01/28 06:17:15;;;;;;;;;;;;;;;21.83;22.27;98927.75;5036744;28;1421;-74
2024/01/28 06:19:40;;;;;;;;;;;;;;;21.68;22.52;98932.78;5036690;28;1453;-74
2024/01/28 06:22:06;;;;;;;;;;;;;;;21.60;22.56;98936.91;5018838;28;967;-74
2024/01/28 06:24:31;;;;;;;;;;;;;;;21.40;22.99;98928.28;5017590;28;1069;-73
2024/01/28 06:26:57;;;;;;;;;;;;;;;21.61;22.82;98941.38;5035425;28;998;-74
2024/01/28 06:29:22;;;;;;;;;;;;;;;21.33;22.69;98931.97;5018931;28;1906;-73
2024/01/28 06:31:50;;;;;;;;;;;;;;;21.22;23.00;98931.25;5018557;28;1053;-74
2024/01/28 06:34:15;;;;;;;;;;;;;;;21.48;22.90;98929.78;5001456;28;1386;-73
2024/01/28 06:36:41;;;;;;;;;;;;;;;21.77;22.35;98941.59;5034840;28;1302;-73
2024/01/28 06:39:07;;;;;;;;;;;;;;;21.60;22.52;98931.25;4998459;28;1367;-74
2024/01/28 06:41:32;;;;;;;;;;;;;;;21.57;22.59;98935.75;5015566;28;1379;-74
2024/01/28 06:43:58;;;;;;;;;;;;;;;21.46;22.83;98926.56;4999018;28;958;-74
2024/01/28 06:46:24;;;;;;;;;;;;;;;21.67;22.38;98936.84;5015303;28;950;-74
2024/01/28 06:48:50;;;;;;;;;;;;;;;21.56;22.95;98942.66;5014890;28;1989;-73
2024/01/28 06:51:15;;;;;;;;;;;;;;;21.40;23.02;98945.25;5005174;28;1523;-74
2024/01/28 06:53:41;;;;;;;;;;;;;;;21.61;22.80;98938.53;5029814;28;1150;-74
2024/01/28 06:56:06;;;;;;;;;;;;;;;21.54;22.49;98939.41;5035032;28;1184;-74
2024/01/28 06:58:32;;;;;;;;;;;;;;;21.13;22.94;98939.41;5018366;28;1183;-74
2024/01/28 07:00:57;;;;;;;;;;;;;;;21.11;23.22;98944.69;5034839;28;969;-74
2024/01/28 07:03:23;;;;;;;;;;;;;;;21.69;22.46;98939.25;5018643;28;1060;-74
2024/01/28 07:05:48;;;;;;;;;;;;;;;21.50;22.72;98937.84;4984217;28;1493;-73
2024/01/28 07:08:14;;;;;;;;;;;;;;;21.48;22.75;98941.09;5014894;28;1316;-74
2024/01/28 07:10:39;;;;;;;;;;;;;;;21.68;22.50;98946.94;4998483;28;1915;-74
2024/01/28 07:13:05;;;;;;;;;;;;;;;21.66;22.67;98957.91;5014773;28;1187;-74
2024/01/28 07:15:30;;;;;;;;;;;;;;;21.62;22.59;98962.00;5014849;28;980;-73
2024/01/28 07:17:56;;;;;;;;;;;;;;;21.70;22.37;98958.66;4998347;28;987;-74
2024/01/28 07:20:22;;;;;;;;;;;;;;;21.71;22.37;98960.28;4994382;28;1326;-74
2024/01/28 07:22:47;;;;;;;;;;;;;;;21.71;22.37;98959.44;4995325;28;1031;-74
2024/01/28 07:25:13;;;;;;;;;;;;;;;21.70;22.57;98958.66;4995003;28;1411;-74
2024/01/28 07:27:39;;;;;;;;;;;;;;;21.79;22.37;98964.63;4994611;28;1020;-74
2024/01/28 07:30:05;;;;;;;;;;;;;;;21.93;22.29;98965.69;4997801;28;1914;-74
2024/01/28 07:32:31;;;;;;;;;;;;;;;21.88;22.31;98974.66;5014256;28;956;-74
2024/01/28 07:34:56;;;;;;;;;;;;;;;21.99;22.23;98964.78;4997008;28;1492;-73
2024/01/28 07:37:22;;;;;;;;;;;;;;;22.00;22.27;98974.06;4997134;28;1433;-73
2024/01/28 07:39:47;;;;;;;;;;;;;;;21.99;21.95;98963.97;5014290;28;979;-74
2024/01/28 07:42:13;;;;;;;;;;;;;;;22.01;22.36;98970.00;5014099;28;1230;-74
2024/01/28 07:44:39;;;;;;;;;;;;;;;21.96;22.18;98962.78;4998086;28;1010;-74
2024/01/28 07:47:05;;;;;;;;;;;;;;;21.95;22.35;98974.53;5014438;28;1026;-73
2024/01/28 07:49:30;;;;;;;;;;;;;;;21.94;22.36;98972.94;5014106;28;1977;-73
2024/01/28 07:51:56;;;;;;;;;;;;;;;21.57;22.88;98966.09;4997121;28;1363;-74
2024/01/28 07:54:21;;;;;;;;;;;;;;;21.28;23.30;98972.03;4997733;28;1022;-74
2024/01/28 07:56:47;;;;;;;;;;;;;;;21.43;23.08;98977.56;4997883;28;997;-73
2024/01/28 07:59:12;;;;;;;;;;;;;;;21.59;22.79;98967.28;4997472;28;966;-74
2024/01/28 08:01:38;;;;;;;;;;;;;;;21.81;22.48;98973.50;4958559;28;1464;-73
2024/01/28 08:04:04;;;;;;;;;;;;;;;21.69;22.60;98971.22;4972034;28;1412;-74
2024/01/28 08:06:30;;;;;;;;;;;;;;;21.85;22.55;98971.41;4994210;28;1001;-73
2024/01/28 08:08:56;;;;;;;;;;;;;;;21.83;22.25;98962.53;4994128;28;1910;-74
2024/01/28 08:11:21;;;;;;;;;;;;;;;21.77;22.51;98975.56;4977064;28;1469;-74
2024/01/28 08:13:48;;;;;;;;;;;;;;;21.68;22.50;98971.63;4993277;28;1409;-74
2024/01/28 08:16:13;;;;;;;;;;;;;;;21.75;22.60;98972.34;4994138;28;1016;-74
2024/01/28 08:18:39;;;;;;;;;;;;;;;21.64;22.46;98966.00;4994171;28;1027;-73
2024/01/28 08:21:05;;;;;;;;;;;;;;;21.62;22.62;98976.16;4994079;28;1296;-73
2024/01/28 08:23:30;;;;;;;;;;;;;;;21.79;22.36;98958.94;4993760;28;954;-74
2024/01/28 08:25:56;;;;;;;;;;;;;;;21.50;22.85;98967.00;4993721;28;1631;-73
2024/01/28 08:28:21;;;;;;;;;;;;;;;21.19;23.27;98974.56;4993218;28;1550;-74
2024/01/28 08:30:47;;;;;;;;;;;;;;;21.21;23.37;98983.41;4977161;28;1961;-73
2024/01/28 08:33:12;;;;;;;;;;;;;;;21.36;23.21;98977.66;5038070;28;992;-73
2024/01/28 08:35:38;;;;;;;;;;;;;;;21.47;22.89;98972.69;5036416;28;996;-73
2024/01/28 08:38:04;;;;;;;;;;;;;;;21.55;22.79;98988.34;5036457;28;908;-74
2024/01/28 08:40:29;;;;;;;;;;;;;;;21.75;22.36;98992.19;5036390;28;1253;-74
2024/01/28 08:42:55;;;;;;;;;;;;;;;21.64;22.68;98994.31;5036608;28;978;-74
2024/01/28 08:45:21;;;;;;;;;;;;;;;21.85;22.34;98998.94;5012065;28;1447;-73
2024/01/28 08:47:47;;;;;;;;;;;;;;;21.94;22.33;99002.09;5012500;28;991;-73
2024/01/28 08:50:12;;;;;;;;;;;;;;;21.93;22.32;99002.50;4996950;28;1918;-74
2024/01/28 08:52:38;;;;;;;;;;;;;;;21.67;22.60;99016.16;4997044;28;997;-74
2024/01/28 08:55:03;;;;;;;;;;;;;;;21.57;22.74;99011.41;4979160;28;1327;-74
2024/01/28 08:57:29;;;;;;;;;;;;;;;21.85;22.45;99016.75;4977064;28;1015;-74
2024/01/28 08:59:54;;;;;;;;;;;;;;;21.83;22.34;99010.72;4994200;28;1445;-74
2024/01/28 09:02:20;;;;;;;;;;;;;;;21.65;22.65;99012.13;4980890;28;1590;-74
2024/01/28 09:04:46;;;;;;;;;;;;;;;21.77;22.57;99026.56;5013270;28;1036;-74
2024/01/28 09:07:11;;;;;;;;;;;;;;;21.60;22.81;99019.03;4997066;28;1201;-74
2024/01/28 09:09:37;;;;;;;;;;;;;;;21.78;22.40;99028.16;4996005;28;1914;-74
2024/01/28 09:12:03;;;;;;;;;;;;;;;21.72;22.85;99035.53;4996811;28;976;-73
2024/01/28 09:14:29;;;;;;;;;;;;;;;21.74;22.85;99027.41;5012340;28;1392;-74
2024/01/28 09:16:55;;;;;;;;;;;;;;;21.64;23.00;99025.47;5023005;28;1504;-73
2024/01/28 09:19:20;;;;;;;;;;;;;;;21.53;23.01;99034.09;5035221;28;1206;-74
2024/01/28 09:21:46;;;;;;;;;;;;;;;21.33;23.02;99019.72;5017550;28;947;-74
2024/01/28 09:24:11;;;;;;;;;;;;;;;21.51;23.15;99025.22;5037471;28;1072;-74
2024/01/28 09:26:37;;;;;;;;;;;;;;;21.51;23.11;99030.09;4996377;28;1069;-73
2024/01/28 09:29:03;;;;;;;;;;;;;;;21.48;23.11;99025.25;4996211;28;1914;-74
2024/01/28 09:31:29;;;;;;;;;;;;;;;21.68;22.74;99019.78;5011585;28;1372;-74
2024/01/28 09:33:54;;;;;;;;;;;;;;;21.72;22.61;99012.88;4996594;28;951;-73
2024/01/28 09:36:20;;;;;;;;;;;;;;;21.89;22.52;99025.22;4996646;28;1152;-74
2024/01/28 09:38:45;;;;;;;;;;;;;;;21.84;22.47;99015.16;5012887;28;974;-74
2024/01/28 09:41:17;;;;;;;;;;;;;;;21.81;22.50;99020.84;5012656;28;996;-73
2024/01/28 09:43:43;;;;;;;;;;;;;;;21.82;22.60;99016.81;4996470;28;993;-73
2024/01/28 09:46:09;;;;;;;;;;;;;;;21.77;22.80;99020.09;5011063;28;1365;-73
2024/01/28 09:48:34;;;;;;;;;;;;;;;21.83;22.59;99027.72;5012999;28;1953;-74
2024/01/28 09:51:00;;;;;;;;;;;;;;;21.82;22.78;99011.94;5012966;28;1009;-74
2024/01/28 09:53:25;;;;;;;;;;;;;;;21.90;22.47;99012.66;5012917;28;987;-74
2024/01/28 09:55:51;;;;;;;;;;;;;;;21.90;22.72;99017.50;5012784;28;1043;-73
2024/01/28 09:58:17;;;;;;;;;;;;;;;21.58;22.75;99013.00;5046776;28;982;-73
2024/01/28 10:00:42;;;;;;;;;;;;;;;21.52;23.05;99021.16;5043517;28;1302;-74
2024/01/28 10:03:09;;;;;;;;;;;;;;;21.39;23.12;99028.56;5037806;28;1409;-73
2024/01/28 10:05:35;;;;;;;;;;;;;;;21.53;22.90;99027.63;5040044;28;1533;-74
2024/01/28 10:08:02;;;;;;;;;;;;;;;21.90;22.45;99028.84;5058316;28;924;-73
2024/01/28 10:10:27;;;;;;;;;;;;;;;21.99;22.37;99032.78;5040225;28;1906;-74
2024/01/28 10:12:53;;;;;;;;;;;;;;;21.83;22.52;99027.72;5056926;28;1159;-73
2024/01/28 10:15:20;;;;;;;;;;;;;;;21.75;22.79;99022.53;5040419;28;981;-73
2024/01/28 10:17:49;;;;;;;;;;;;;;;21.71;22.78;99016.94;5040369;28;969;-74
2024/01/28 10:20:21;;;;;;;;;;;;;;;21.84;22.68;99026.47;5030508;28;1308;-74
2024/01/28 10:22:47;;;;;;;;;;;;;;;21.59;23.09;99026.75;5038340;28;1351;-73
2024/01/28 10:25:15;;;;;;;;;;;;;;;21.77;22.76;99023.72;5039661;28;1039;-74
2024/01/28 10:27:41;;;;;;;;;;;;;;;21.73;22.82;99030.66;5040283;28;1004;-74
2024/01/28 10:30:07;;;;;;;;;;;;;;;21.92;22.53;99032.88;5040208;28;1979;-74
2024/01/28 10:32:33;;;;;;;;;;;;;;;21.97;22.58;99028.78;5023320;28;958;-74
2024/01/28 10:34:58;;;;;;;;;;;;;;;21.88;22.70;99031.31;5039836;28;987;-74
2024/01/28 10:37:24;;;;;;;;;;;;;;;21.76;22.63;99036.31;5039920;28;942;-73
2024/01/28 10:39:50;;;;;;;;;;;;;;;21.74;22.61;99032.25;5021716;28;1446;-73
2024/01/28 10:42:18;;;;;;;;;;;;;;;21.61;22.79;99046.16;4995562;28;1030;-74
2024/01/28 10:44:47;;;;;;;;;;;;;;;21.48;23.29;99047.91;4979343;28;1021;-74
2024/01/28 10:47:13;;;;;;;;;;;;;;;21.62;23.11;99047.78;4963474;28;961;-74
2024/01/28 10:49:38;;;;;;;;;;;;;;;21.51;23.29;99047.88;4979546;28;1910;-74
2024/01/28 10:52:04;;;;;;;;;;;;;;;21.49;23.19;99044.66;4979593;28;997;-73
2024/01/28 10:54:30;;;;;;;;;;;;;;;21.52;23.09;99043.03;4962769;28;1407;-74
2024/01/28 10:56:55;;;;;;;;;;;;;;;21.57;22.99;99037.69;4962826;28;1406;-74
2024/01/28 10:59:21;;;;;;;;;;;;;;;21.83;22.61;99041.88;4995025;28;1472;-73
2024/01/28 11:01:48;;;;;;;;;;;;;;;21.85;22.55;99045.06;4978493;28;1443;-74
2024/01/28 11:04:13;;;;;;;;;;;;;;;21.78;22.77;99050.84;4979239;28;1030;-73
2024/01/28 11:06:40;;;;;;;;;;;;;;;21.82;22.87;99047.97;4978973;28;1038;-74
2024/01/28 11:09:05;;;;;;;;;;;;;;;21.83;22.68;99047.53;4979265;28;1906;-73
2024/01/28 11:11:31;;;;;;;;;;;;;;;21.74;22.79;99038.72;4977644;28;1299;-74
2024/01/28 11:13:57;;;;;;;;;;;;;;;21.27;23.41;99041.19;5025728;28;1278;-73
2024/01/28 11:16:22;;;;;;;;;;;;;;;21.25;23.54;99052.13;5056906;28;944;-73
2024/01/28 11:18:57;;;;;;;;;;;;;;;21.35;23.26;99044.81;5034537;28;1391;-73
2024/01/28 11:21:23;;;;;;;;;;;;;;;21.52;23.02;99054.34;5018042;28;1259;-74
2024/01/28 11:23:49;;;;;;;;;;;;;;;21.84;22.88;99049.13;4975491;28;971;-74
2024/01/28 11:26:18;;;;;;;;;;;;;;;21.84;22.68;99054.81;4975459;28;1479;-74
2024/01/28 11:28:49;;;;;;;;;;;;;;;21.89;22.77;99055.59;4974811;28;1982;-74
2024/01/28 11:31:21;;;;;;;;;;;;;;;22.01;22.34;99067.16;4975534;28;1261;-74
2024/01/28 11:33:47;;;;;;;;;;;;;;;21.69;22.89;99064.69;4975380;28;1041;-73
2024/01/28 11:36:13;;;;;;;;;;;;;;;21.76;22.71;99064.63;4975534;28;968;-73
2024/01/28 11:38:38;;;;;;;;;;;;;;;21.61;22.92;99063.16;4975364;28;996;-74
2024/01/28 11:41:04;;;;;;;;;;;;;;;21.78;23.04;99073.50;4975097;28;1072;-74
2024/01/28 11:43:29;;;;;;;;;;;;;;;21.91;22.83;99065.25;4958351;28;1654;-74
2024/01/28 11:45:56;;;;;;;;;;;;;;;21.72;22.97;99061.03;4974984;28;1230;-73
2024/01/28 11:48:22;;;;;;;;;;;;;;;21.27;23.60;99066.66;4975022;28;950;-73
2024/01/28 11:50:48;;;;;;;;;;;;;;;21.23;23.42;99060.22;4992455;28;1961;-74
2024/01/28 11:53:13;;;;;;;;;;;;;;;21.42;23.31;99069.41;4994518;28;1101;-73
2024/01/28 11:55:39;;;;;;;;;;;;;;;21.55;23.01;99064.81;5027542;28;1072;-73
2024/01/28 11:58:04;;;;;;;;;;;;;;;21.66;23.20;99070.38;4997065;28;1351;-73
2024/01/28 12:00:30;;;;;;;;;;;;;;;21.85;22.54;99073.41;4981084;28;1211;-74
2024/01/28 12:02:55;;;;;;;;;;;;;;;21.74;22.70;99071.94;4981482;28;1036;-74
2024/01/28 12:05:21;;;;;;;;;;;;;;;21.49;23.05;99075.00;4981444;28;1120;-74
2024/01/28 12:07:47;;;;;;;;;;;;;;;21.65;22.75;99069.56;4958547;28;1142;-74
2024/01/28 12:10:12;;;;;;;;;;;;;;;21.59;22.89;99079.75;4958468;28;1976;-74
2024/01/28 12:12:41;;;;;;;;;;;;;;;21.59;23.05;99082.59;4947224;28;1428;-75
2024/01/28 12:15:07;;;;;;;;;;;;;;;21.64;23.12;99078.50;4978121;28;1029;-74
2024/01/28 12:17:34;;;;;;;;;;;;;;;21.31;23.29;99075.97;4995935;28;1018;-73
2024/01/28 12:19:59;;;;;;;;;;;;;;;21.23;23.51;99071.53;5013808;28;999;-74
2024/01/28 12:22:25;;;;;;;;;;;;;;;21.55;23.21;99070.47;5012896;28;1033;-74
2024/01/28 12:24:51;;;;;;;;;;;;;;;21.42;23.15;99077.91;5011754;28;1573;-74
2024/01/28 12:27:16;;;;;;;;;;;;;;;21.52;23.04;99077.00;4996920;28;1307;-73
2024/01/28 12:29:42;;;;;;;;;;;;;;;21.71;22.80;99079.25;4996684;28;1965;-74
2024/01/28 12:32:08;;;;;;;;;;;;;;;21.96;22.66;99081.00;4997172;28;821;-73
2024/01/28 12:34:34;;;;;;;;;;;;;;;21.80;22.36;99061.75;4997079;28;1143;-73
2024/01/28 12:36:59;;;;;;;;;;;;;;;21.98;22.17;99087.06;5012111;28;1422;-73
2024/01/28 12:39:25;;;;;;;;;;;;;;;21.80;22.94;99082.38;4996625;28;969;-73
2024/01/28 12:41:50;;;;;;;;;;;;;;;21.71;22.75;99090.56;5013067;28;1343;-74
2024/01/28 12:44:16;;;;;;;;;;;;;;;21.73;22.94;99092.97;4999361;28;949;-73
2024/01/28 12:46:41;;;;;;;;;;;;;;;21.64;22.95;99101.97;5033331;28;1421;-74
2024/01/28 12:49:08;;;;;;;;;;;;;;;21.92;22.56;99100.09;5034041;28;1969;-74
2024/01/28 12:51:34;;;;;;;;;;;;;;;21.76;22.61;99101.47;5018192;28;924;-75